sensor_id;sensor_type;location;lat;lon;timestamp;temperature;humidity
56869;DHT22;42754;0.000;0.000;2023-05-19T00:02:24;8.80;99.90
56869;DHT22;42754;0.000;0.000;2023-05-19T00:04:50;8.80;99.90
56869;DHT22;42754;0.000;0.000;2023-05-19T00:07:16;8.70;99.90
56869;DHT22;42754;0.000;0.000;2023-05-19T00:09:42;8.70;99.90
56869;DHT22;42754;0.000;0.000;2023-05-19T00:12:08;8.70;99.90
56869;DHT22;42754;0.000;0.000;2023-05-19T00:14:35;8.60;99.90
56869;DHT22;42754;0.000;0.000;2023-05-19T00:17:00;8.60;99.90
56869;DHT22;42754;0.000;0.000;2023-05-19T00:19:26;8.60;99.90
56869;DHT22;42754;0.000;0.000;2023-05-19T00:21:57;8.60;99.90
56869;DHT22;42754;0.000;0.000;2023-05-19T00:24:22;8.50;99.90
56869;DHT22;42754;0.000;0.000;2023-05-19T00:26:48;8.50;99.90
56869;DHT22;42754;0.000;0.000;2023-05-19T00:29:13;8.40;99.90
56869;DHT22;42754;0.000;0.000;2023-05-19T00:31:42;8.40;99.90
56869;DHT22;42754;0.000;0.000;2023-05-19T00:34:08;8.30;99.90
56869;DHT22;42754;0.000;0.000;2023-05-19T00:36:34;8.40;99.90
56869;DHT22;42754;0.000;0.000;2023-05-19T00:38:59;8.30;99.90
56869;DHT22;42754;0.000;0.000;2023-05-19T00:41:25;8.30;99.90
56869;DHT22;42754;0.000;0.000;2023-05-19T00:43:50;8.30;99.90
56869;DHT22;42754;0.000;0.000;2023-05-19T00:46:17;8.30;99.90
56869;DHT22;42754;0.000;0.000;2023-05-19T00:48:43;8.20;99.90
56869;DHT22;42754;0.000;0.000;2023-05-19T00:51:11;8.20;99.90
56869;DHT22;42754;0.000;0.000;2023-05-19T00:53:40;8.20;99.90
56869;DHT22;42754;0.000;0.000;2023-05-19T00:56:08;8.10;99.90
56869;DHT22;42754;0.000;0.000;2023-05-19T00:58:33;8.20;99.90
56869;DHT22;42754;0.000;0.000;2023-05-19T01:01:00;8.10;99.90
56869;DHT22;42754;0.000;0.000;2023-05-19T01:03:30;8.10;99.90
56869;DHT22;42754;0.000;0.000;2023-05-19T01:05:56;8.20;99.90
56869;DHT22;42754;0.000;0.000;2023-05-19T01:08:22;8.10;99.90
56869;DHT22;42754;0.000;0.000;2023-05-19T01:10:47;8.10;99.90
56869;DHT22;42754;0.000;0.000;2023-05-19T01:13:13;8.10;99.90
56869;DHT22;42754;0.000;0.000;2023-05-19T01:15:45;8.10;99.90
56869;DHT22;42754;0.000;0.000;2023-05-19T01:18:19;8.10;99.90
56869;DHT22;42754;0.000;0.000;2023-05-19T01:20:53;8.00;99.90
56869;DHT22;42754;0.000;0.000;2023-05-19T01:31:00;7.80;99.90
56869;DHT22;42754;0.000;0.000;2023-05-19T01:33:27;7.80;99.90
56869;DHT22;42754;0.000;0.000;2023-05-19T01:35:54;7.80;99.90
56869;DHT22;42754;0.000;0.000;2023-05-19T01:38:20;7.80;99.90
56869;DHT22;42754;0.000;0.000;2023-05-19T01:40:48;7.70;99.90
56869;DHT22;42754;0.000;0.000;2023-05-19T01:43:16;7.70;99.90
56869;DHT22;42754;0.000;0.000;2023-05-19T01:45:44;7.70;99.90
56869;DHT22;42754;0.000;0.000;2023-05-19T01:48:09;7.60;99.90
56869;DHT22;42754;0.000;0.000;2023-05-19T01:50:36;7.70;99.90
56869;DHT22;42754;0.000;0.000;2023-05-19T01:53:02;7.60;99.90
56869;DHT22;42754;0.000;0.000;2023-05-19T01:55:28;7.60;99.90
56869;DHT22;42754;0.000;0.000;2023-05-19T02:00:47;7.50;99.90
56869;DHT22;42754;0.000;0.000;2023-05-19T02:05:52;7.60;99.90
56869;DHT22;42754;0.000;0.000;2023-05-19T02:08:29;7.50;99.90
56869;DHT22;42754;0.000;0.000;2023-05-19T02:10:57;7.60;99.90
56869;DHT22;42754;0.000;0.000;2023-05-19T02:13:26;7.50;99.90
56869;DHT22;42754;0.000;0.000;2023-05-19T02:15:54;7.50;99.90
56869;DHT22;42754;0.000;0.000;2023-05-19T02:18:21;7.50;99.90
56869;DHT22;42754;0.000;0.000;2023-05-19T02:20:46;7.50;99.90
56869;DHT22;42754;0.000;0.000;2023-05-19T02:23:12;7.40;99.90
56869;DHT22;42754;0.000;0.000;2023-05-19T02:25:38;7.40;99.90
56869;DHT22;42754;0.000;0.000;2023-05-19T02:28:05;7.40;99.90
56869;DHT22;42754;0.000;0.000;2023-05-19T02:30:30;7.40;99.90
56869;DHT22;42754;0.000;0.000;2023-05-19T02:32:56;7.40;99.90
56869;DHT22;42754;0.000;0.000;2023-05-19T02:35:22;7.30;99.90
56869;DHT22;42754;0.000;0.000;2023-05-19T02:37:47;7.30;99.90
56869;DHT22;42754;0.000;0.000;2023-05-19T02:40:13;7.30;99.90
56869;DHT22;42754;0.000;0.000;2023-05-19T02:42:40;7.30;99.90
56869;DHT22;42754;0.000;0.000;2023-05-19T02:45:06;7.30;99.90
56869;DHT22;42754;0.000;0.000;2023-05-19T02:47:32;7.30;99.90
56869;DHT22;42754;0.000;0.000;2023-05-19T02:49:58;7.30;99.90
56869;DHT22;42754;0.000;0.000;2023-05-19T02:52:24;7.20;99.90
56869;DHT22;42754;0.000;0.000;2023-05-19T02:54:49;7.30;99.90
56869;DHT22;42754;0.000;0.000;2023-05-19T02:57:15;7.20;99.90
56869;DHT22;42754;0.000;0.000;2023-05-19T02:59:41;7.10;99.90
56869;DHT22;42754;0.000;0.000;2023-05-19T03:02:07;7.10;99.90
56869;DHT22;42754;0.000;0.000;2023-05-19T03:04:32;7.10;99.90
56869;DHT22;42754;0.000;0.000;2023-05-19T03:07:06;7.10;99.90
56869;DHT22;42754;0.000;0.000;2023-05-19T03:09:31;7.10;99.90
56869;DHT22;42754;0.000;0.000;2023-05-19T03:11:57;7.20;99.90
56869;DHT22;42754;0.000;0.000;2023-05-19T03:14:28;7.10;99.90
56869;DHT22;42754;0.000;0.000;2023-05-19T03:16:55;7.10;99.90
56869;DHT22;42754;0.000;0.000;2023-05-19T03:19:20;7.00;99.90
56869;DHT22;42754;0.000;0.000;2023-05-19T03:21:46;7.10;99.90
56869;DHT22;42754;0.000;0.000;2023-05-19T03:24:12;7.10;99.90
56869;DHT22;42754;0.000;0.000;2023-05-19T03:26:37;7.00;99.90
56869;DHT22;42754;0.000;0.000;2023-05-19T03:29:03;7.00;99.90
56869;DHT22;42754;0.000;0.000;2023-05-19T03:31:28;7.00;99.90
56869;DHT22;42754;0.000;0.000;2023-05-19T03:33:55;7.00;99.90
56869;DHT22;42754;0.000;0.000;2023-05-19T03:36:23;6.90;99.90
56869;DHT22;42754;0.000;0.000;2023-05-19T03:38:48;6.90;99.90
56869;DHT22;42754;0.000;0.000;2023-05-19T03:41:14;6.90;99.90
56869;DHT22;42754;0.000;0.000;2023-05-19T03:43:40;7.00;99.90
56869;DHT22;42754;0.000;0.000;2023-05-19T03:46:06;7.00;99.90
56869;DHT22;42754;0.000;0.000;2023-05-19T03:48:32;6.90;99.90
56869;DHT22;42754;0.000;0.000;2023-05-19T03:50:57;6.90;99.90
56869;DHT22;42754;0.000;0.000;2023-05-19T03:53:23;7.00;99.90
56869;DHT22;42754;0.000;0.000;2023-05-19T03:55:50;7.00;99.90
56869;DHT22;42754;0.000;0.000;2023-05-19T03:58:16;7.10;99.90
56869;DHT22;42754;0.000;0.000;2023-05-19T04:00:41;7.00;99.90
56869;DHT22;42754;0.000;0.000;2023-05-19T04:03:07;7.10;99.90
56869;DHT22;42754;0.000;0.000;2023-05-19T04:05:34;7.10;99.90
56869;DHT22;42754;0.000;0.000;2023-05-19T04:08:00;7.20;99.90
56869;DHT22;42754;0.000;0.000;2023-05-19T04:10:25;7.10;99.90
56869;DHT22;42754;0.000;0.000;2023-05-19T04:12:51;7.20;99.90
56869;DHT22;42754;0.000;0.000;2023-05-19T04:15:17;7.20;99.90
56869;DHT22;42754;0.000;0.000;2023-05-19T04:17:42;7.20;99.90
56869;DHT22;42754;0.000;0.000;2023-05-19T04:20:08;7.30;99.90
56869;DHT22;42754;0.000;0.000;2023-05-19T04:22:34;7.30;99.90
56869;DHT22;42754;0.000;0.000;2023-05-19T04:24:59;7.40;99.90
56869;DHT22;42754;0.000;0.000;2023-05-19T04:27:25;7.30;99.90
56869;DHT22;42754;0.000;0.000;2023-05-19T04:29:53;7.30;99.90
56869;DHT22;42754;0.000;0.000;2023-05-19T04:32:19;7.40;99.90
56869;DHT22;42754;0.000;0.000;2023-05-19T04:34:44;7.40;99.90
56869;DHT22;42754;0.000;0.000;2023-05-19T04:37:11;7.50;99.90
56869;DHT22;42754;0.000;0.000;2023-05-19T04:39:37;7.60;99.90
56869;DHT22;42754;0.000;0.000;2023-05-19T04:42:10;7.60;99.90
56869;DHT22;42754;0.000;0.000;2023-05-19T04:44:36;7.70;99.90
56869;DHT22;42754;0.000;0.000;2023-05-19T04:47:05;7.80;99.90
56869;DHT22;42754;0.000;0.000;2023-05-19T04:49:33;8.00;99.90
56869;DHT22;42754;0.000;0.000;2023-05-19T04:52:04;8.00;99.90
56869;DHT22;42754;0.000;0.000;2023-05-19T04:54:30;8.10;99.90
56869;DHT22;42754;0.000;0.000;2023-05-19T04:56:56;8.20;99.90
56869;DHT22;42754;0.000;0.000;2023-05-19T04:59:21;8.30;99.90
56869;DHT22;42754;0.000;0.000;2023-05-19T05:01:47;8.40;99.90
56869;DHT22;42754;0.000;0.000;2023-05-19T05:04:13;8.50;99.90
56869;DHT22;42754;0.000;0.000;2023-05-19T05:06:38;8.60;99.90
56869;DHT22;42754;0.000;0.000;2023-05-19T05:09:06;8.70;99.90
56869;DHT22;42754;0.000;0.000;2023-05-19T05:11:32;9.00;99.90
56869;DHT22;42754;0.000;0.000;2023-05-19T05:13:57;9.30;99.90
56869;DHT22;42754;0.000;0.000;2023-05-19T05:16:23;9.40;99.90
56869;DHT22;42754;0.000;0.000;2023-05-19T05:18:49;9.30;99.90
56869;DHT22;42754;0.000;0.000;2023-05-19T05:21:15;9.40;99.90
56869;DHT22;42754;0.000;0.000;2023-05-19T05:23:41;9.60;99.90
56869;DHT22;42754;0.000;0.000;2023-05-19T05:26:08;10.00;99.90
56869;DHT22;42754;0.000;0.000;2023-05-19T05:28:34;9.90;99.90
56869;DHT22;42754;0.000;0.000;2023-05-19T05:31:00;9.90;99.90
56869;DHT22;42754;0.000;0.000;2023-05-19T05:33:25;9.80;99.90
56869;DHT22;42754;0.000;0.000;2023-05-19T05:35:52;10.00;99.90
56869;DHT22;42754;0.000;0.000;2023-05-19T05:38:18;9.90;99.90
56869;DHT22;42754;0.000;0.000;2023-05-19T05:40:44;10.10;99.90
56869;DHT22;42754;0.000;0.000;2023-05-19T05:43:10;10.10;99.90
56869;DHT22;42754;0.000;0.000;2023-05-19T05:45:35;10.10;99.90
56869;DHT22;42754;0.000;0.000;2023-05-19T05:48:01;10.20;99.90
56869;DHT22;42754;0.000;0.000;2023-05-19T05:50:27;10.60;99.90
56869;DHT22;42754;0.000;0.000;2023-05-19T05:52:52;10.90;99.90
56869;DHT22;42754;0.000;0.000;2023-05-19T05:55:19;11.10;99.90
56869;DHT22;42754;0.000;0.000;2023-05-19T05:57:45;11.50;99.90
56869;DHT22;42754;0.000;0.000;2023-05-19T06:00:13;11.30;99.90
56869;DHT22;42754;0.000;0.000;2023-05-19T06:02:44;11.60;99.90
56869;DHT22;42754;0.000;0.000;2023-05-19T06:05:13;11.60;99.90
56869;DHT22;42754;0.000;0.000;2023-05-19T06:07:39;11.80;99.90
56869;DHT22;42754;0.000;0.000;2023-05-19T06:10:05;12.10;99.90
56869;DHT22;42754;0.000;0.000;2023-05-19T06:12:31;12.50;99.90
56869;DHT22;42754;0.000;0.000;2023-05-19T06:14:56;12.80;99.90
56869;DHT22;42754;0.000;0.000;2023-05-19T06:17:22;12.90;99.90
56869;DHT22;42754;0.000;0.000;2023-05-19T06:19:47;12.80;99.90
56869;DHT22;42754;0.000;0.000;2023-05-19T06:22:13;13.00;99.90
56869;DHT22;42754;0.000;0.000;2023-05-19T06:24:38;13.40;99.90
56869;DHT22;42754;0.000;0.000;2023-05-19T06:27:04;13.60;99.90
56869;DHT22;42754;0.000;0.000;2023-05-19T06:29:30;13.80;99.90
56869;DHT22;42754;0.000;0.000;2023-05-19T06:31:56;14.00;99.90
56869;DHT22;42754;0.000;0.000;2023-05-19T06:34:22;14.10;99.90
56869;DHT22;42754;0.000;0.000;2023-05-19T06:36:47;14.00;99.90
56869;DHT22;42754;0.000;0.000;2023-05-19T06:39:13;13.90;99.90
56869;DHT22;42754;0.000;0.000;2023-05-19T06:41:38;13.80;99.90
56869;DHT22;42754;0.000;0.000;2023-05-19T06:44:05;13.80;99.90
56869;DHT22;42754;0.000;0.000;2023-05-19T06:46:31;14.10;99.90
56869;DHT22;42754;0.000;0.000;2023-05-19T06:48:56;14.20;99.90
56869;DHT22;42754;0.000;0.000;2023-05-19T06:51:24;14.20;99.90
56869;DHT22;42754;0.000;0.000;2023-05-19T06:53:49;14.20;99.90
56869;DHT22;42754;0.000;0.000;2023-05-19T06:56:15;14.10;99.90
56869;DHT22;42754;0.000;0.000;2023-05-19T06:58:42;14.30;99.90
56869;DHT22;42754;0.000;0.000;2023-05-19T07:01:07;14.60;99.90
56869;DHT22;42754;0.000;0.000;2023-05-19T07:03:33;14.70;99.90
56869;DHT22;42754;0.000;0.000;2023-05-19T07:05:59;14.60;99.90
56869;DHT22;42754;0.000;0.000;2023-05-19T07:08:24;14.70;99.90
56869;DHT22;42754;0.000;0.000;2023-05-19T07:10:52;14.80;99.90
56869;DHT22;42754;0.000;0.000;2023-05-19T07:13:17;14.70;99.90
56869;DHT22;42754;0.000;0.000;2023-05-19T07:15:43;14.70;99.90
56869;DHT22;42754;0.000;0.000;2023-05-19T07:18:09;14.80;99.90
56869;DHT22;42754;0.000;0.000;2023-05-19T07:20:34;15.30;99.90
56869;DHT22;42754;0.000;0.000;2023-05-19T07:23:00;15.50;99.90
56869;DHT22;42754;0.000;0.000;2023-05-19T07:25:27;15.40;99.90
56869;DHT22;42754;0.000;0.000;2023-05-19T07:27:55;15.10;99.90
56869;DHT22;42754;0.000;0.000;2023-05-19T07:30:21;14.90;99.90
56869;DHT22;42754;0.000;0.000;2023-05-19T07:32:48;15.00;99.90
56869;DHT22;42754;0.000;0.000;2023-05-19T07:35:13;15.10;99.90
56869;DHT22;42754;0.000;0.000;2023-05-19T07:37:39;15.30;99.90
56869;DHT22;42754;0.000;0.000;2023-05-19T07:40:04;15.30;99.90
56869;DHT22;42754;0.000;0.000;2023-05-19T07:42:33;15.30;99.90
56869;DHT22;42754;0.000;0.000;2023-05-19T07:44:59;15.40;99.90
56869;DHT22;42754;0.000;0.000;2023-05-19T07:47:25;15.30;99.90
56869;DHT22;42754;0.000;0.000;2023-05-19T07:49:51;15.40;99.90
56869;DHT22;42754;0.000;0.000;2023-05-19T07:52:16;15.60;99.90
56869;DHT22;42754;0.000;0.000;2023-05-19T07:54:42;15.80;99.90
56869;DHT22;42754;0.000;0.000;2023-05-19T07:57:08;15.80;99.90
56869;DHT22;42754;0.000;0.000;2023-05-19T07:59:34;15.80;99.90
56869;DHT22;42754;0.000;0.000;2023-05-19T08:02:01;16.00;99.90
56869;DHT22;42754;0.000;0.000;2023-05-19T08:04:27;16.10;99.90
56869;DHT22;42754;0.000;0.000;2023-05-19T08:06:53;16.10;99.90
56869;DHT22;42754;0.000;0.000;2023-05-19T08:09:19;16.20;99.30
56869;DHT22;42754;0.000;0.000;2023-05-19T08:11:44;16.10;98.80
56869;DHT22;42754;0.000;0.000;2023-05-19T08:14:11;16.30;97.50
56869;DHT22;42754;0.000;0.000;2023-05-19T08:16:36;16.30;96.10
56869;DHT22;42754;0.000;0.000;2023-05-19T08:19:02;16.40;95.20
56869;DHT22;42754;0.000;0.000;2023-05-19T08:21:29;16.60;94.80
56869;DHT22;42754;0.000;0.000;2023-05-19T08:23:59;16.90;94.70
56869;DHT22;42754;0.000;0.000;2023-05-19T08:26:26;16.80;93.90
56869;DHT22;42754;0.000;0.000;2023-05-19T08:28:51;17.20;95.20
56869;DHT22;42754;0.000;0.000;2023-05-19T08:31:17;17.30;95.10
56869;DHT22;42754;0.000;0.000;2023-05-19T08:33:43;17.20;92.60
56869;DHT22;42754;0.000;0.000;2023-05-19T08:36:10;17.30;94.90
56869;DHT22;42754;0.000;0.000;2023-05-19T08:38:35;17.70;92.90
56869;DHT22;42754;0.000;0.000;2023-05-19T08:41:01;17.80;91.20
56869;DHT22;42754;0.000;0.000;2023-05-19T08:43:26;18.20;91.90
56869;DHT22;42754;0.000;0.000;2023-05-19T08:45:52;18.40;91.70
56869;DHT22;42754;0.000;0.000;2023-05-19T08:48:19;18.20;91.40
56869;DHT22;42754;0.000;0.000;2023-05-19T08:50:51;17.90;89.70
56869;DHT22;42754;0.000;0.000;2023-05-19T08:53:21;17.60;88.60
56869;DHT22;42754;0.000;0.000;2023-05-19T08:55:53;17.70;88.80
56869;DHT22;42754;0.000;0.000;2023-05-19T08:58:23;18.00;87.40
56869;DHT22;42754;0.000;0.000;2023-05-19T09:00:48;18.20;86.90
56869;DHT22;42754;0.000;0.000;2023-05-19T09:03:15;19.30;84.50
56869;DHT22;42754;0.000;0.000;2023-05-19T09:05:41;19.40;80.40
56869;DHT22;42754;0.000;0.000;2023-05-19T09:08:07;20.10;78.70
56869;DHT22;42754;0.000;0.000;2023-05-19T09:10:32;20.80;78.00
56869;DHT22;42754;0.000;0.000;2023-05-19T09:12:58;21.50;77.40
56869;DHT22;42754;0.000;0.000;2023-05-19T09:15:26;22.00;76.80
56869;DHT22;42754;0.000;0.000;2023-05-19T09:18:04;22.40;74.50
56869;DHT22;42754;0.000;0.000;2023-05-19T09:20:30;22.70;73.50
56869;DHT22;42754;0.000;0.000;2023-05-19T09:22:56;22.80;71.60
56869;DHT22;42754;0.000;0.000;2023-05-19T09:25:24;23.00;71.80
56869;DHT22;42754;0.000;0.000;2023-05-19T09:27:50;22.90;71.20
56869;DHT22;42754;0.000;0.000;2023-05-19T09:30:18;22.40;70.50
56869;DHT22;42754;0.000;0.000;2023-05-19T09:32:45;22.90;72.20
56869;DHT22;42754;0.000;0.000;2023-05-19T09:35:10;22.90;71.60
56869;DHT22;42754;0.000;0.000;2023-05-19T09:37:40;22.90;69.30
56869;DHT22;42754;0.000;0.000;2023-05-19T09:40:06;23.00;69.10
56869;DHT22;42754;0.000;0.000;2023-05-19T09:42:35;22.70;68.60
56869;DHT22;42754;0.000;0.000;2023-05-19T09:45:01;22.90;71.40
56869;DHT22;42754;0.000;0.000;2023-05-19T09:47:45;23.70;70.10
56869;DHT22;42754;0.000;0.000;2023-05-19T09:50:11;24.40;68.60
56869;DHT22;42754;0.000;0.000;2023-05-19T09:52:38;24.50;68.50
56869;DHT22;42754;0.000;0.000;2023-05-19T09:55:07;24.00;69.10
56869;DHT22;42754;0.000;0.000;2023-05-19T09:57:33;23.90;68.80
56869;DHT22;42754;0.000;0.000;2023-05-19T10:00:03;23.80;66.90
56869;DHT22;42754;0.000;0.000;2023-05-19T10:02:36;24.00;67.80
56869;DHT22;42754;0.000;0.000;2023-05-19T10:05:05;23.10;68.00
56869;DHT22;42754;0.000;0.000;2023-05-19T10:07:31;23.30;68.10
56869;DHT22;42754;0.000;0.000;2023-05-19T10:09:57;23.30;66.80
56869;DHT22;42754;0.000;0.000;2023-05-19T10:12:25;23.40;67.10
56869;DHT22;42754;0.000;0.000;2023-05-19T10:14:50;23.80;67.30
56869;DHT22;42754;0.000;0.000;2023-05-19T10:17:19;23.70;67.70
56869;DHT22;42754;0.000;0.000;2023-05-19T10:19:44;23.10;67.30
56869;DHT22;42754;0.000;0.000;2023-05-19T10:22:12;23.00;68.60
56869;DHT22;42754;0.000;0.000;2023-05-19T10:24:37;23.90;68.40
56869;DHT22;42754;0.000;0.000;2023-05-19T10:27:04;23.90;66.60
56869;DHT22;42754;0.000;0.000;2023-05-19T10:29:33;23.90;67.90
56869;DHT22;42754;0.000;0.000;2023-05-19T10:32:05;24.40;66.90
56869;DHT22;42754;0.000;0.000;2023-05-19T10:37:23;23.60;67.30
56869;DHT22;42754;0.000;0.000;2023-05-19T10:39:53;23.20;67.60
56869;DHT22;42754;0.000;0.000;2023-05-19T10:42:28;23.50;68.80
56869;DHT22;42754;0.000;0.000;2023-05-19T10:45:02;23.20;66.80
56869;DHT22;42754;0.000;0.000;2023-05-19T10:47:29;22.90;68.20
56869;DHT22;42754;0.000;0.000;2023-05-19T10:49:55;23.40;68.10
56869;DHT22;42754;0.000;0.000;2023-05-19T10:52:21;22.80;66.40
56869;DHT22;42754;0.000;0.000;2023-05-19T10:54:47;23.10;67.30
56869;DHT22;42754;0.000;0.000;2023-05-19T10:57:13;23.30;67.00
56869;DHT22;42754;0.000;0.000;2023-05-19T10:59:39;24.40;66.70
56869;DHT22;42754;0.000;0.000;2023-05-19T11:02:05;24.80;67.20
56869;DHT22;42754;0.000;0.000;2023-05-19T11:04:50;24.50;63.80
56869;DHT22;42754;0.000;0.000;2023-05-19T11:07:19;24.30;65.20
56869;DHT22;42754;0.000;0.000;2023-05-19T11:09:49;24.60;66.20
56869;DHT22;42754;0.000;0.000;2023-05-19T11:12:19;24.90;65.50
56869;DHT22;42754;0.000;0.000;2023-05-19T11:14:46;24.50;64.50
56869;DHT22;42754;0.000;0.000;2023-05-19T11:17:13;24.00;66.20
56869;DHT22;42754;0.000;0.000;2023-05-19T11:19:39;23.70;66.80
56869;DHT22;42754;0.000;0.000;2023-05-19T11:22:16;23.70;66.30
56869;DHT22;42754;0.000;0.000;2023-05-19T11:24:42;23.90;66.00
56869;DHT22;42754;0.000;0.000;2023-05-19T11:29:44;24.30;64.60
56869;DHT22;42754;0.000;0.000;2023-05-19T11:32:10;24.10;64.90
56869;DHT22;42754;0.000;0.000;2023-05-19T11:34:36;24.00;64.50
56869;DHT22;42754;0.000;0.000;2023-05-19T11:37:01;24.40;66.10
56869;DHT22;42754;0.000;0.000;2023-05-19T11:39:28;25.00;65.00
56869;DHT22;42754;0.000;0.000;2023-05-19T11:41:54;23.40;63.80
56869;DHT22;42754;0.000;0.000;2023-05-19T11:44:20;23.20;64.70
56869;DHT22;42754;0.000;0.000;2023-05-19T11:46:45;23.60;64.30
56869;DHT22;42754;0.000;0.000;2023-05-19T11:49:11;24.10;65.70
56869;DHT22;42754;0.000;0.000;2023-05-19T11:51:37;24.70;65.00
56869;DHT22;42754;0.000;0.000;2023-05-19T11:54:03;24.60;63.70
56869;DHT22;42754;0.000;0.000;2023-05-19T11:56:38;24.50;62.80
56869;DHT22;42754;0.000;0.000;2023-05-19T11:59:04;24.10;64.40
56869;DHT22;42754;0.000;0.000;2023-05-19T12:01:29;24.00;64.00
56869;DHT22;42754;0.000;0.000;2023-05-19T12:03:56;24.00;65.70
56869;DHT22;42754;0.000;0.000;2023-05-19T12:06:21;23.90;64.20
56869;DHT22;42754;0.000;0.000;2023-05-19T12:08:49;24.20;64.40
56869;DHT22;42754;0.000;0.000;2023-05-19T12:11:17;24.40;64.00
56869;DHT22;42754;0.000;0.000;2023-05-19T12:13:43;23.80;64.90
56869;DHT22;42754;0.000;0.000;2023-05-19T12:16:09;24.00;67.00
56869;DHT22;42754;0.000;0.000;2023-05-19T12:18:37;24.40;65.00
56869;DHT22;42754;0.000;0.000;2023-05-19T12:21:03;23.20;66.30
56869;DHT22;42754;0.000;0.000;2023-05-19T12:23:29;22.40;66.10
56869;DHT22;42754;0.000;0.000;2023-05-19T12:25:56;22.60;67.50
56869;DHT22;42754;0.000;0.000;2023-05-19T12:28:22;23.20;66.90
56869;DHT22;42754;0.000;0.000;2023-05-19T12:30:49;22.90;67.70
56869;DHT22;42754;0.000;0.000;2023-05-19T12:33:19;23.50;65.50
56869;DHT22;42754;0.000;0.000;2023-05-19T12:35:47;23.00;67.30
56869;DHT22;42754;0.000;0.000;2023-05-19T12:38:14;23.30;67.20
56869;DHT22;42754;0.000;0.000;2023-05-19T12:40:40;24.00;67.30
56869;DHT22;42754;0.000;0.000;2023-05-19T12:43:05;23.90;67.80
56869;DHT22;42754;0.000;0.000;2023-05-19T12:45:36;23.20;67.60
56869;DHT22;42754;0.000;0.000;2023-05-19T12:48:03;22.70;68.00
56869;DHT22;42754;0.000;0.000;2023-05-19T12:50:29;23.00;68.10
56869;DHT22;42754;0.000;0.000;2023-05-19T12:52:55;22.60;67.70
56869;DHT22;42754;0.000;0.000;2023-05-19T12:55:21;22.50;66.70
56869;DHT22;42754;0.000;0.000;2023-05-19T12:57:48;22.50;69.00
56869;DHT22;42754;0.000;0.000;2023-05-19T13:00:16;22.70;69.00
56869;DHT22;42754;0.000;0.000;2023-05-19T13:02:54;23.20;67.10
56869;DHT22;42754;0.000;0.000;2023-05-19T13:05:20;23.00;65.70
56869;DHT22;42754;0.000;0.000;2023-05-19T13:08:00;23.40;68.50
56869;DHT22;42754;0.000;0.000;2023-05-19T13:10:26;24.00;66.70
56869;DHT22;42754;0.000;0.000;2023-05-19T13:12:53;24.20;66.00
56869;DHT22;42754;0.000;0.000;2023-05-19T13:15:21;23.80;64.20
56869;DHT22;42754;0.000;0.000;2023-05-19T13:17:47;22.70;65.60
56869;DHT22;42754;0.000;0.000;2023-05-19T13:20:13;22.80;67.20
56869;DHT22;42754;0.000;0.000;2023-05-19T13:22:38;22.20;67.40
56869;DHT22;42754;0.000;0.000;2023-05-19T13:25:04;21.90;67.90
56869;DHT22;42754;0.000;0.000;2023-05-19T13:27:30;21.70;68.50
56869;DHT22;42754;0.000;0.000;2023-05-19T13:29:56;22.30;69.20
56869;DHT22;42754;0.000;0.000;2023-05-19T13:32:22;22.90;65.70
56869;DHT22;42754;0.000;0.000;2023-05-19T13:34:47;23.30;67.10
56869;DHT22;42754;0.000;0.000;2023-05-19T13:37:13;23.50;66.10
56869;DHT22;42754;0.000;0.000;2023-05-19T13:39:39;23.50;65.90
56869;DHT22;42754;0.000;0.000;2023-05-19T13:42:05;23.30;65.20
56869;DHT22;42754;0.000;0.000;2023-05-19T13:44:31;23.00;64.80
56869;DHT22;42754;0.000;0.000;2023-05-19T13:46:57;22.50;65.60
56869;DHT22;42754;0.000;0.000;2023-05-19T13:49:23;22.50;66.70
56869;DHT22;42754;0.000;0.000;2023-05-19T13:51:50;22.70;66.70
56869;DHT22;42754;0.000;0.000;2023-05-19T13:54:16;22.80;67.00
56869;DHT22;42754;0.000;0.000;2023-05-19T13:56:41;23.00;66.80
56869;DHT22;42754;0.000;0.000;2023-05-19T13:59:08;22.50;67.60
56869;DHT22;42754;0.000;0.000;2023-05-19T14:01:34;21.90;67.10
56869;DHT22;42754;0.000;0.000;2023-05-19T14:04:00;21.30;67.50
56869;DHT22;42754;0.000;0.000;2023-05-19T14:06:25;21.10;67.80
56869;DHT22;42754;0.000;0.000;2023-05-19T14:08:52;21.80;67.60
56869;DHT22;42754;0.000;0.000;2023-05-19T14:11:18;22.30;67.40
56869;DHT22;42754;0.000;0.000;2023-05-19T14:13:44;22.60;67.20
56869;DHT22;42754;0.000;0.000;2023-05-19T14:16:10;22.50;66.10
56869;DHT22;42754;0.000;0.000;2023-05-19T14:18:38;22.20;66.00
56869;DHT22;42754;0.000;0.000;2023-05-19T14:21:03;22.10;66.70
56869;DHT22;42754;0.000;0.000;2023-05-19T14:23:30;22.00;67.60
56869;DHT22;42754;0.000;0.000;2023-05-19T14:25:56;21.40;67.10
56869;DHT22;42754;0.000;0.000;2023-05-19T14:28:21;21.60;67.10
56869;DHT22;42754;0.000;0.000;2023-05-19T14:30:47;21.70;66.50
56869;DHT22;42754;0.000;0.000;2023-05-19T14:33:12;22.20;67.80
56869;DHT22;42754;0.000;0.000;2023-05-19T14:35:38;22.30;66.60
56869;DHT22;42754;0.000;0.000;2023-05-19T14:38:03;22.20;65.40
56869;DHT22;42754;0.000;0.000;2023-05-19T14:40:29;22.00;66.40
56869;DHT22;42754;0.000;0.000;2023-05-19T14:42:54;22.30;66.90
56869;DHT22;42754;0.000;0.000;2023-05-19T14:45:20;22.50;66.40
56869;DHT22;42754;0.000;0.000;2023-05-19T14:47:47;22.40;65.80
56869;DHT22;42754;0.000;0.000;2023-05-19T14:50:12;22.20;66.70
56869;DHT22;42754;0.000;0.000;2023-05-19T14:52:38;21.50;67.20
56869;DHT22;42754;0.000;0.000;2023-05-19T14:55:04;21.60;67.50
56869;DHT22;42754;0.000;0.000;2023-05-19T14:57:29;21.90;67.30
56869;DHT22;42754;0.000;0.000;2023-05-19T14:59:55;22.00;67.60
56869;DHT22;42754;0.000;0.000;2023-05-19T15:02:21;21.90;66.80
56869;DHT22;42754;0.000;0.000;2023-05-19T15:04:46;21.30;67.40
56869;DHT22;42754;0.000;0.000;2023-05-19T15:07:12;21.00;67.30
56869;DHT22;42754;0.000;0.000;2023-05-19T15:09:37;21.20;68.40
56869;DHT22;42754;0.000;0.000;2023-05-19T15:12:03;21.40;67.40
56869;DHT22;42754;0.000;0.000;2023-05-19T15:14:28;21.40;68.20
56869;DHT22;42754;0.000;0.000;2023-05-19T15:16:54;21.70;66.90
56869;DHT22;42754;0.000;0.000;2023-05-19T15:19:20;21.60;66.40
56869;DHT22;42754;0.000;0.000;2023-05-19T15:21:45;21.40;66.30
56869;DHT22;42754;0.000;0.000;2023-05-19T15:24:11;21.00;66.90
56869;DHT22;42754;0.000;0.000;2023-05-19T15:26:36;21.10;66.40
56869;DHT22;42754;0.000;0.000;2023-05-19T15:29:02;21.50;67.30
56869;DHT22;42754;0.000;0.000;2023-05-19T15:31:28;21.60;67.10
56869;DHT22;42754;0.000;0.000;2023-05-19T15:33:53;21.60;66.30
56869;DHT22;42754;0.000;0.000;2023-05-19T15:36:20;21.90;67.40
56869;DHT22;42754;0.000;0.000;2023-05-19T15:38:45;22.10;66.80
56869;DHT22;42754;0.000;0.000;2023-05-19T15:41:11;21.90;65.90
56869;DHT22;42754;0.000;0.000;2023-05-19T15:43:36;21.20;65.70
56869;DHT22;42754;0.000;0.000;2023-05-19T15:46:04;20.70;67.20
56869;DHT22;42754;0.000;0.000;2023-05-19T15:48:29;20.60;67.50
56869;DHT22;42754;0.000;0.000;2023-05-19T15:50:59;21.00;66.50
56869;DHT22;42754;0.000;0.000;2023-05-19T15:53:25;21.00;66.60
56869;DHT22;42754;0.000;0.000;2023-05-19T15:55:51;21.10;67.00
56869;DHT22;42754;0.000;0.000;2023-05-19T15:58:16;21.30;67.50
56869;DHT22;42754;0.000;0.000;2023-05-19T16:00:43;21.30;67.40
56869;DHT22;42754;0.000;0.000;2023-05-19T16:03:11;21.20;66.70
56869;DHT22;42754;0.000;0.000;2023-05-19T16:05:37;20.90;67.90
56869;DHT22;42754;0.000;0.000;2023-05-19T16:08:03;20.70;68.10